sensor_id;sensor_type;location;lat;lon;timestamp;pressure;altitude;pressure_sealevel;temperature;humidity
65329;BME280;51941;52.210;5.158;2024-03-23T00:54:25;101050.09;;;6.74;81.77
65329;BME280;51941;52.210;5.158;2024-03-23T00:56:51;101047.75;;;6.73;81.97
65329;BME280;51941;52.210;5.158;2024-03-23T00:59:18;101045.31;;;6.68;82.89
65329;BME280;51941;52.210;5.158;2024-03-23T01:01:44;101039.53;;;6.66;83.40
65329;BME280;51941;52.210;5.158;2024-03-23T01:04:11;101037.94;;;6.65;82.68
65329;BME280;51941;52.210;5.158;2024-03-23T01:06:36;101040.88;;;6.60;83.43
65329;BME280;51941;52.210;5.158;2024-03-23T01:09:03;101033.19;;;6.58;82.78
65329;BME280;51941;52.210;5.158;2024-03-23T01:11:30;101041.53;;;6.57;82.81
65329;BME280;51941;52.210;5.158;2024-03-23T01:13:57;101035.63;;;6.51;83.32
65329;BME280;51941;52.210;5.158;2024-03-23T01:16:23;101027.59;;;6.51;83.28
65329;BME280;51941;52.210;5.158;2024-03-23T01:18:50;101021.69;;;6.45;83.41
65329;BME280;51941;52.210;5.158;2024-03-23T01:21:16;101013.66;;;6.45;82.88
65329;BME280;51941;52.210;5.158;2024-03-23T01:23:43;101013.47;;;6.38;83.55
65329;BME280;51941;52.210;5.158;2024-03-23T01:26:08;101012.69;;;6.38;83.26
65329;BME280;51941;52.210;5.158;2024-03-23T01:28:37;101006.88;;;6.36;83.21
65329;BME280;51941;52.210;5.158;2024-03-23T01:31:03;101013.38;;;6.34;83.00
65329;BME280;51941;52.210;5.158;2024-03-23T01:33:30;101002.56;;;6.31;83.04
65329;BME280;51941;52.210;5.158;2024-03-23T01:35:55;101003.56;;;6.26;83.07
65329;BME280;51941;52.210;5.158;2024-03-23T01:38:22;100996.88;;;6.20;83.24
65329;BME280;51941;52.210;5.158;2024-03-23T01:40:49;100993.31;;;6.16;82.82
65329;BME280;51941;52.210;5.158;2024-03-23T01:43:16;100997.09;;;6.15;83.03
65329;BME280;51941;52.210;5.158;2024-03-23T01:45:43;100993.88;;;6.09;82.92
65329;BME280;51941;52.210;5.158;2024-03-23T01:48:10;100999.91;;;6.06;82.79
65329;BME280;51941;52.210;5.158;2024-03-23T01:50:38;100994.00;;;6.01;83.12
65329;BME280;51941;52.210;5.158;2024-03-23T01:53:05;100992.75;;;5.98;83.12
65329;BME280;51941;52.210;5.158;2024-03-23T01:55:32;100991.88;;;5.94;82.97
65329;BME280;51941;52.210;5.158;2024-03-23T01:57:59;100988.75;;;5.92;82.98
65329;BME280;51941;52.210;5.158;2024-03-23T02:00:25;100986.31;;;5.87;83.10
65329;BME280;51941;52.210;5.158;2024-03-23T02:02:57;100986.19;;;5.83;83.26
65329;BME280;51941;52.210;5.158;2024-03-23T02:05:26;100984.50;;;5.79;83.57
65329;BME280;51941;52.210;5.158;2024-03-23T02:07:54;100985.50;;;5.74;83.47
65329;BME280;51941;52.210;5.158;2024-03-23T02:10:20;100986.97;;;5.71;83.18
65329;BME280;51941;52.210;5.158;2024-03-23T02:12:46;100982.94;;;5.65;83.94
65329;BME280;51941;52.210;5.158;2024-03-23T02:15:12;100981.94;;;5.58;84.57
65329;BME280;51941;52.210;5.158;2024-03-23T02:17:39;100983.94;;;5.61;83.49
65329;BME280;51941;52.210;5.158;2024-03-23T02:20:07;100980.34;;;5.57;83.88
65329;BME280;51941;52.210;5.158;2024-03-23T02:22:36;100978.50;;;5.57;83.33
65329;BME280;51941;52.210;5.158;2024-03-23T02:25:05;100970.69;;;5.52;84.12
65329;BME280;51941;52.210;5.158;2024-03-23T02:27:33;100975.25;;;5.51;83.86
65329;BME280;51941;52.210;5.158;2024-03-23T02:30:03;100967.88;;;5.48;83.86
65329;BME280;51941;52.210;5.158;2024-03-23T02:32:30;100961.75;;;5.48;83.48
65329;BME280;51941;52.210;5.158;2024-03-23T02:34:56;100963.31;;;5.49;83.06
65329;BME280;51941;52.210;5.158;2024-03-23T02:37:22;100964.44;;;5.48;82.94
65329;BME280;51941;52.210;5.158;2024-03-23T02:39:48;100954.84;;;5.47;82.83
65329;BME280;51941;52.210;5.158;2024-03-23T02:42:17;100955.53;;;5.44;82.58
65329;BME280;51941;52.210;5.158;2024-03-23T02:44:43;100950.72;;;5.37;82.84
65329;BME280;51941;52.210;5.158;2024-03-23T02:47:10;100952.63;;;5.37;82.82
65329;BME280;51941;52.210;5.158;2024-03-23T02:49:36;100952.94;;;5.35;82.35
65329;BME280;51941;52.210;5.158;2024-03-23T02:52:03;100950.50;;;5.30;82.35
65329;BME280;51941;52.210;5.158;2024-03-23T02:54:28;100955.38;;;5.28;82.17
65329;BME280;51941;52.210;5.158;2024-03-23T02:56:56;100947.91;;;5.21;81.87
65329;BME280;51941;52.210;5.158;2024-03-23T02:59:23;100952.28;;;5.26;81.87
65329;BME280;51941;52.210;5.158;2024-03-23T03:01:50;100946.47;;;5.24;81.91
65329;BME280;51941;52.210;5.158;2024-03-23T03:04:15;100946.47;;;5.24;81.77
65329;BME280;51941;52.210;5.158;2024-03-23T03:06:46;100956.34;;;5.23;81.82
65329;BME280;51941;52.210;5.158;2024-03-23T03:09:12;100956.72;;;5.22;81.52
65329;BME280;51941;52.210;5.158;2024-03-23T03:11:39;100949.03;;;5.20;81.54
65329;BME280;51941;52.210;5.158;2024-03-23T03:14:04;100948.44;;;5.14;81.39
65329;BME280;51941;52.210;5.158;2024-03-23T03:16:34;100948.00;;;5.12;81.47
65329;BME280;51941;52.210;5.158;2024-03-23T03:19:00;100947.88;;;5.09;81.34
65329;BME280;51941;52.210;5.158;2024-03-23T03:21:27;100938.63;;;5.06;81.19
65329;BME280;51941;52.210;5.158;2024-03-23T03:23:53;100948.88;;;5.04;81.37
65329;BME280;51941;52.210;5.158;2024-03-23T03:26:22;100943.41;;;5.01;81.18
65329;BME280;51941;52.210;5.158;2024-03-23T03:28:47;100942.19;;;4.98;81.21
65329;BME280;51941;52.210;5.158;2024-03-23T03:31:15;100939.03;;;4.96;81.08
65329;BME280;51941;52.210;5.158;2024-03-23T03:33:43;100941.56;;;4.92;80.86
65329;BME280;51941;52.210;5.158;2024-03-23T03:36:10;100940.31;;;4.90;80.88
65329;BME280;51941;52.210;5.158;2024-03-23T03:38:35;100930.31;;;4.87;80.85
65329;BME280;51941;52.210;5.158;2024-03-23T03:41:03;100937.06;;;4.84;80.95
65329;BME280;51941;52.210;5.158;2024-03-23T03:43:29;100925.16;;;4.82;80.85
65329;BME280;51941;52.210;5.158;2024-03-23T03:45:58;100931.63;;;4.81;80.95
65329;BME280;51941;52.210;5.158;2024-03-23T03:48:24;100926.47;;;4.75;80.72
65329;BME280;51941;52.210;5.158;2024-03-23T03:50:52;100926.47;;;4.75;80.81
65329;BME280;51941;52.210;5.158;2024-03-23T03:53:18;100918.03;;;4.73;80.65
65329;BME280;51941;52.210;5.158;2024-03-23T03:55:45;100914.59;;;4.73;80.67
65329;BME280;51941;52.210;5.158;2024-03-23T03:58:11;100917.25;;;4.73;80.61
65329;BME280;51941;52.210;5.158;2024-03-23T04:00:38;100916.44;;;4.72;80.56
65329;BME280;51941;52.210;5.158;2024-03-23T04:03:04;100910.47;;;4.75;80.63
65329;BME280;51941;52.210;5.158;2024-03-23T04:05:31;100913.72;;;4.81;80.88
65329;BME280;51941;52.210;5.158;2024-03-23T04:07:59;100911.63;;;4.87;80.56
65329;BME280;51941;52.210;5.158;2024-03-23T04:10:26;100907.53;;;4.89;80.35
65329;BME280;51941;52.210;5.158;2024-03-23T04:12:52;100910.84;;;4.86;79.77
65329;BME280;51941;52.210;5.158;2024-03-23T04:15:19;100910.06;;;4.86;79.98
65329;BME280;51941;52.210;5.158;2024-03-23T04:17:45;100908.50;;;4.85;80.21
65329;BME280;51941;52.210;5.158;2024-03-23T04:20:12;100899.25;;;4.82;80.24
65329;BME280;51941;52.210;5.158;2024-03-23T04:22:39;100900.56;;;4.76;80.28
65329;BME280;51941;52.210;5.158;2024-03-23T04:25:07;100908.34;;;4.69;79.90
65329;BME280;51941;52.210;5.158;2024-03-23T04:27:33;100911.19;;;4.64;80.05
65329;BME280;51941;52.210;5.158;2024-03-23T04:30:00;100910.47;;;4.54;79.88
65329;BME280;51941;52.210;5.158;2024-03-23T04:32:27;100912.56;;;4.49;79.91
65329;BME280;51941;52.210;5.158;2024-03-23T04:34:54;100905.22;;;4.46;80.24
65329;BME280;51941;52.210;5.158;2024-03-23T04:37:20;100906.53;;;4.40;80.26
65329;BME280;51941;52.210;5.158;2024-03-23T04:39:47;100897.19;;;4.33;80.17
65329;BME280;51941;52.210;5.158;2024-03-23T04:42:16;100906.59;;;4.31;80.36
65329;BME280;51941;52.210;5.158;2024-03-23T04:44:42;100905.69;;;4.27;80.37
65329;BME280;51941;52.210;5.158;2024-03-23T04:47:10;100900.22;;;4.23;80.52
65329;BME280;51941;52.210;5.158;2024-03-23T04:49:38;100913.44;;;4.20;80.64
65329;BME280;51941;52.210;5.158;2024-03-23T04:52:05;100908.75;;;4.16;80.52
65329;BME280;51941;52.210;5.158;2024-03-23T04:54:32;100904.38;;;4.12;80.53
65329;BME280;51941;52.210;5.158;2024-03-23T04:56:59;100906.13;;;4.08;80.93
65329;BME280;51941;52.210;5.158;2024-03-23T04:59:27;100903.66;;;4.03;80.46
65329;BME280;51941;52.210;5.158;2024-03-23T05:01:53;100894.88;;;4.02;80.50
65329;BME280;51941;52.210;5.158;2024-03-23T05:04:20;100893.75;;;4.03;80.58
65329;BME280;51941;52.210;5.158;2024-03-23T05:06:45;100893.31;;;4.01;80.48
65329;BME280;51941;52.210;5.158;2024-03-23T05:09:14;100898.63;;;4.01;80.40
65329;BME280;51941;52.210;5.158;2024-03-23T05:11:40;100895.19;;;4.01;80.45
65329;BME280;51941;52.210;5.158;2024-03-23T05:14:07;100898.31;;;4.03;80.50
65329;BME280;51941;52.210;5.158;2024-03-23T05:16:35;100892.69;;;4.04;80.12
65329;BME280;51941;52.210;5.158;2024-03-23T05:19:01;100899.44;;;4.02;80.41
65329;BME280;51941;52.210;5.158;2024-03-23T05:21:27;100903.00;;;4.06;80.51
65329;BME280;51941;52.210;5.158;2024-03-23T05:23:55;100904.25;;;4.08;80.45
65329;BME280;51941;52.210;5.158;2024-03-23T05:26:21;100901.59;;;4.08;80.27
65329;BME280;51941;52.210;5.158;2024-03-23T05:28:48;100899.69;;;4.09;80.24
65329;BME280;51941;52.210;5.158;2024-03-23T05:31:22;100902.50;;;4.12;80.36
65329;BME280;51941;52.210;5.158;2024-03-23T05:33:50;100900.75;;;4.16;80.29
65329;BME280;51941;52.210;5.158;2024-03-23T05:36:17;100908.41;;;4.18;80.23
65329;BME280;51941;52.210;5.158;2024-03-23T05:38:44;100901.00;;;4.24;80.21
65329;BME280;51941;52.210;5.158;2024-03-23T05:41:10;100899.13;;;4.24;79.69
65329;BME280;51941;52.210;5.158;2024-03-23T05:43:37;100895.53;;;4.20;79.85
65329;BME280;51941;52.210;5.158;2024-03-23T05:46:03;100891.75;;;4.21;80.09
65329;BME280;51941;52.210;5.158;2024-03-23T05:48:30;100894.50;;;4.12;80.17
65329;BME280;51941;52.210;5.158;2024-03-23T05:50:58;100890.75;;;4.13;80.40
65329;BME280;51941;52.210;5.158;2024-03-23T05:53:24;100893.84;;;4.15;80.47
65329;BME280;51941;52.210;5.158;2024-03-23T05:55:51;100887.41;;;4.16;80.47
65329;BME280;51941;52.210;5.158;2024-03-23T05:58:21;100891.75;;;4.21;80.39
65329;BME280;51941;52.210;5.158;2024-03-23T06:00:46;100882.34;;;4.24;80.60
65329;BME280;51941;52.210;5.158;2024-03-23T06:03:13;100888.28;;;4.29;80.37
65329;BME280;51941;52.210;5.158;2024-03-23T06:05:39;100891.72;;;4.30;80.51
65329;BME280;51941;52.210;5.158;2024-03-23T06:08:08;100888.66;;;4.40;80.28
65329;BME280;51941;52.210;5.158;2024-03-23T06:10:35;100889.38;;;4.49;80.16
65329;BME280;51941;52.210;5.158;2024-03-23T06:13:01;100893.72;;;4.54;80.06
65329;BME280;51941;52.210;5.158;2024-03-23T06:15:27;100889.84;;;4.64;79.95
65329;BME280;51941;52.210;5.158;2024-03-23T06:17:56;100891.22;;;4.70;79.87
65329;BME280;51941;52.210;5.158;2024-03-23T06:20:21;100894.13;;;4.77;79.70
65329;BME280;51941;52.210;5.158;2024-03-23T06:22:48;100896.06;;;4.89;79.63
65329;BME280;51941;52.210;5.158;2024-03-23T06:25:15;100889.72;;;4.93;78.70
65329;BME280;51941;52.210;5.158;2024-03-23T06:27:42;100893.59;;;5.05;78.89
65329;BME280;51941;52.210;5.158;2024-03-23T06:30:09;100890.81;;;5.13;78.43
65329;BME280;51941;52.210;5.158;2024-03-23T06:32:35;100888.28;;;5.29;78.85
65329;BME280;51941;52.210;5.158;2024-03-23T06:35:01;100881.38;;;5.41;79.04
65329;BME280;51941;52.210;5.158;2024-03-23T06:37:33;100878.59;;;5.74;78.24
65329;BME280;51941;52.210;5.158;2024-03-23T06:39:59;100878.41;;;6.32;77.83
65329;BME280;51941;52.210;5.158;2024-03-23T06:42:27;100879.34;;;6.96;76.79
65329;BME280;51941;52.210;5.158;2024-03-23T06:44:53;100879.81;;;7.62;75.72
65329;BME280;51941;52.210;5.158;2024-03-23T06:47:20;100873.00;;;8.39;71.53
65329;BME280;51941;52.210;5.158;2024-03-23T06:49:46;100876.25;;;8.90;70.46
65329;BME280;51941;52.210;5.158;2024-03-23T06:52:12;100870.91;;;9.37;68.03
65329;BME280;51941;52.210;5.158;2024-03-23T06:54:38;100873.06;;;9.50;66.34
65329;BME280;51941;52.210;5.158;2024-03-23T06:57:05;100877.31;;;9.78;64.03
65329;BME280;51941;52.210;5.158;2024-03-23T06:59:32;100871.72;;;10.24;62.46
65329;BME280;51941;52.210;5.158;2024-03-23T07:01:59;100872.31;;;10.41;61.44
65329;BME280;51941;52.210;5.158;2024-03-23T07:04:24;100869.69;;;10.85;61.14
65329;BME280;51941;52.210;5.158;2024-03-23T07:06:51;100867.41;;;11.28;60.52
65329;BME280;51941;52.210;5.158;2024-03-23T07:09:18;100882.00;;;11.24;59.32
65329;BME280;51941;52.210;5.158;2024-03-23T07:11:45;100864.41;;;11.41;59.09
65329;BME280;51941;52.210;5.158;2024-03-23T07:14:11;100867.41;;;11.28;56.67
65329;BME280;51941;52.210;5.158;2024-03-23T07:16:39;100872.34;;;10.82;56.85
65329;BME280;51941;52.210;5.158;2024-03-23T07:19:05;100866.06;;;11.04;55.95
65329;BME280;51941;52.210;5.158;2024-03-23T07:21:32;100869.91;;;11.59;55.13
65329;BME280;51941;52.210;5.158;2024-03-23T07:23:57;100870.53;;;11.97;55.95
65329;BME280;51941;52.210;5.158;2024-03-23T07:26:24;100874.03;;;12.01;54.09
65329;BME280;51941;52.210;5.158;2024-03-23T07:28:50;100885.91;;;11.85;53.55
65329;BME280;51941;52.210;5.158;2024-03-23T07:31:17;100871.97;;;11.80;54.77
65329;BME280;51941;52.210;5.158;2024-03-23T07:33:46;100878.25;;;11.95;54.76
65329;BME280;51941;52.210;5.158;2024-03-23T07:36:13;100887.63;;;12.22;53.39
65329;BME280;51941;52.210;5.158;2024-03-23T07:38:40;100885.84;;;12.52;53.81
65329;BME280;51941;52.210;5.158;2024-03-23T07:41:08;100879.31;;;12.71;53.59
65329;BME280;51941;52.210;5.158;2024-03-23T07:43:34;100879.66;;;12.58;52.39
65329;BME280;51941;52.210;5.158;2024-03-23T07:46:01;100871.97;;;12.68;53.35
65329;BME280;51941;52.210;5.158;2024-03-23T07:48:29;100876.13;;;12.33;51.58
65329;BME280;51941;52.210;5.158;2024-03-23T07:50:58;100877.47;;;11.98;52.49
65329;BME280;51941;52.210;5.158;2024-03-23T07:53:24;100868.81;;;11.63;53.89
65329;BME280;51941;52.210;5.158;2024-03-23T07:55:55;100871.38;;;11.42;53.84
65329;BME280;51941;52.210;5.158;2024-03-23T07:58:21;100878.94;;;10.84;55.95
65329;BME280;51941;52.210;5.158;2024-03-23T08:00:48;100872.16;;;9.96;57.70
65329;BME280;51941;52.210;5.158;2024-03-23T08:03:14;100877.28;;;9.52;58.36
65329;BME280;51941;52.210;5.158;2024-03-23T08:05:44;100883.69;;;9.43;58.55
65329;BME280;51941;52.210;5.158;2024-03-23T08:08:11;100879.84;;;8.98;59.97
65329;BME280;51941;52.210;5.158;2024-03-23T08:10:47;100875.47;;;9.13;59.49
65329;BME280;51941;52.210;5.158;2024-03-23T08:13:13;100875.63;;;9.43;59.17
65329;BME280;51941;52.210;5.158;2024-03-23T08:15:39;100873.16;;;9.84;58.33
65329;BME280;51941;52.210;5.158;2024-03-23T08:18:07;100874.63;;;10.42;57.35
65329;BME280;51941;52.210;5.158;2024-03-23T08:20:34;100871.06;;;11.02;53.70
65329;BME280;51941;52.210;5.158;2024-03-23T08:22:59;100872.38;;;10.48;54.69
65329;BME280;51941;52.210;5.158;2024-03-23T08:25:30;100867.78;;;9.84;55.94
65329;BME280;51941;52.210;5.158;2024-03-23T08:27:56;100870.13;;;9.89;57.40
65329;BME280;51941;52.210;5.158;2024-03-23T08:30:23;100878.06;;;9.52;57.55
65329;BME280;51941;52.210;5.158;2024-03-23T08:32:49;100874.22;;;9.07;58.87
65329;BME280;51941;52.210;5.158;2024-03-23T08:35:16;100877.63;;;8.81;60.18
65329;BME280;51941;52.210;5.158;2024-03-23T08:37:45;100879.41;;;8.73;60.38
65329;BME280;51941;52.210;5.158;2024-03-23T08:40:12;100885.28;;;8.59;59.20
65329;BME280;51941;52.210;5.158;2024-03-23T08:42:39;100879.91;;;8.40;59.60
65329;BME280;51941;52.210;5.158;2024-03-23T08:45:06;100882.75;;;8.47;58.84
65329;BME280;51941;52.210;5.158;2024-03-23T08:47:34;100885.63;;;8.58;59.18
65329;BME280;51941;52.210;5.158;2024-03-23T08:50:01;100873.25;;;8.73;59.29
65329;BME280;51941;52.210;5.158;2024-03-23T08:52:27;100872.19;;;8.77;59.70
65329;BME280;51941;52.210;5.158;2024-03-23T08:54:55;100863.72;;;8.56;59.77
65329;BME280;51941;52.210;5.158;2024-03-23T08:57:21;100872.75;;;8.67;59.13
65329;BME280;51941;52.210;5.158;2024-03-23T08:59:49;100877.88;;;8.52;60.06
65329;BME280;51941;52.210;5.158;2024-03-23T09:02:15;100874.59;;;8.82;59.72
65329;BME280;51941;52.210;5.158;2024-03-23T09:04:42;100876.19;;;8.87;59.96
65329;BME280;51941;52.210;5.158;2024-03-23T09:07:09;100874.41;;;8.95;60.06
65329;BME280;51941;52.210;5.158;2024-03-23T09:09:38;100870.50;;;9.11;59.23
65329;BME280;51941;52.210;5.158;2024-03-23T09:12:04;100865.59;;;8.94;59.63
65329;BME280;51941;52.210;5.158;2024-03-23T09:14:31;100863.38;;;9.00;59.09
65329;BME280;51941;52.210;5.158;2024-03-23T09:16:58;100853.81;;;9.02;59.27
65329;BME280;51941;52.210;5.158;2024-03-23T09:19:27;100863.22;;;9.35;58.98
65329;BME280;51941;52.210;5.158;2024-03-23T09:21:52;100867.09;;;9.38;57.94
65329;BME280;51941;52.210;5.158;2024-03-23T09:24:19;100864.44;;;9.18;58.32
65329;BME280;51941;52.210;5.158;2024-03-23T09:26:45;100861.22;;;9.09;60.20
65329;BME280;51941;52.210;5.158;2024-03-23T09:29:12;100862.22;;;9.01;60.24
65329;BME280;51941;52.210;5.158;2024-03-23T09:31:38;100864.97;;;8.81;59.10
65329;BME280;51941;52.210;5.158;2024-03-23T09:34:06;100858.25;;;8.48;60.65
65329;BME280;51941;52.210;5.158;2024-03-23T09:36:32;100855.97;;;8.50;60.39
65329;BME280;51941;52.210;5.158;2024-03-23T09:38:59;100861.13;;;8.59;60.46
65329;BME280;51941;52.210;5.158;2024-03-23T09:41:25;100863.53;;;8.64;60.62
65329;BME280;51941;52.210;5.158;2024-03-23T09:43:52;100874.53;;;8.59;61.35
65329;BME280;51941;52.210;5.158;2024-03-23T09:46:18;100872.91;;;8.16;61.81
65329;BME280;51941;52.210;5.158;2024-03-23T09:48:46;100872.13;;;7.96;62.55
65329;BME280;51941;52.210;5.158;2024-03-23T09:51:14;100864.38;;;7.75;63.61
65329;BME280;51941;52.210;5.158;2024-03-23T09:53:40;100871.56;;;7.70;63.41
65329;BME280;51941;52.210;5.158;2024-03-23T09:56:07;100871.16;;;7.68;63.14
65329;BME280;51941;52.210;5.158;2024-03-23T09:58:35;100866.22;;;7.70;62.76
65329;BME280;51941;52.210;5.158;2024-03-23T10:01:01;100869.75;;;7.75;63.03
65329;BME280;51941;52.210;5.158;2024-03-23T10:03:28;100871.31;;;7.76;63.70
65329;BME280;51941;52.210;5.158;2024-03-23T10:06:01;100865.28;;;7.63;63.77
65329;BME280;51941;52.210;5.158;2024-03-23T10:08:30;100867.59;;;7.64;64.78
65329;BME280;51941;52.210;5.158;2024-03-23T10:10:56;100858.63;;;7.92;64.28
65329;BME280;51941;52.210;5.158;2024-03-23T10:13:26;100851.03;;;8.14;63.86
65329;BME280;51941;52.210;5.158;2024-03-23T10:15:56;100860.00;;;8.02;62.33
65329;BME280;51941;52.210;5.158;2024-03-23T10:18:24;100863.13;;;8.23;61.26
65329;BME280;51941;52.210;5.158;2024-03-23T10:21:07;100857.53;;;8.32;60.95
65329;BME280;51941;52.210;5.158;2024-03-23T10:23:36;100858.59;;;8.47;60.72
65329;BME280;51941;52.210;5.158;2024-03-23T10:26:17;100865.22;;;8.53;60.21
65329;BME280;51941;52.210;5.158;2024-03-23T10:28:57;100865.97;;;8.73;60.43
65329;BME280;51941;52.210;5.158;2024-03-23T10:31:25;100854.81;;;8.71;59.99
65329;BME280;51941;52.210;5.158;2024-03-23T10:33:52;100855.38;;;8.80;58.70
65329;BME280;51941;52.210;5.158;2024-03-23T10:36:20;100846.06;;;8.74;58.00
65329;BME280;51941;52.210;5.158;2024-03-23T10:38:50;100860.94;;;8.71;55.40
65329;BME280;51941;52.210;5.158;2024-03-23T10:41:16;100854.22;;;8.81;55.61
65329;BME280;51941;52.210;5.158;2024-03-23T10:43:45;100855.59;;;8.71;56.81
65329;BME280;51941;52.210;5.158;2024-03-23T10:46:11;100846.72;;;8.48;57.95
65329;BME280;51941;52.210;5.158;2024-03-23T10:48:38;100860.50;;;8.46;57.93
65329;BME280;51941;52.210;5.158;2024-03-23T10:51:05;100847.59;;;8.13;58.57
65329;BME280;51941;52.210;5.158;2024-03-23T10:53:34;100841.22;;;8.21;58.43
65329;BME280;51941;52.210;5.158;2024-03-23T10:56:02;100843.50;;;8.19;58.71
65329;BME280;51941;52.210;5.158;2024-03-23T10:58:36;100841.78;;;8.30;58.62
65329;BME280;51941;52.210;5.158;2024-03-23T11:01:03;100847.19;;;8.54;58.61
65329;BME280;51941;52.210;5.158;2024-03-23T11:03:31;100841.16;;;8.80;58.75
65329;BME280;51941;52.210;5.158;2024-03-23T11:05:57;100847.06;;;8.89;57.79
65329;BME280;51941;52.210;5.158;2024-03-23T11:08:32;100852.25;;;9.01;57.93
65329;BME280;51941;52.210;5.158;2024-03-23T11:11:13;100847.91;;;8.93;57.20
65329;BME280;51941;52.210;5.158;2024-03-23T11:13:40;100843.44;;;9.01;57.89
65329;BME280;51941;52.210;5.158;2024-03-23T11:16:23;100854.22;;;8.81;57.07
65329;BME280;51941;52.210;5.158;2024-03-23T11:18:51;100844.25;;;8.59;57.77
65329;BME280;51941;52.210;5.158;2024-03-23T11:21:51;100845.69;;;8.76;58.28
65329;BME280;51941;52.210;5.158;2024-03-23T11:24:19;100839.31;;;8.84;57.29
65329;BME280;51941;52.210;5.158;2024-03-23T11:26:48;100836.63;;;9.07;56.99
65329;BME280;51941;52.210;5.158;2024-03-23T11:29:16;100848.56;;;9.09;56.31
65329;BME280;51941;52.210;5.158;2024-03-23T11:31:46;100842.28;;;9.25;56.63
65329;BME280;51941;52.210;5.158;2024-03-23T11:34:13;100854.22;;;9.27;55.79
65329;BME280;51941;52.210;5.158;2024-03-23T11:36:38;100849.50;;;9.21;55.84
65329;BME280;51941;52.210;5.158;2024-03-23T11:39:12;100845.22;;;8.93;55.85
65329;BME280;51941;52.210;5.158;2024-03-23T11:41:47;100836.94;;;9.02;56.20
65329;BME280;51941;52.210;5.158;2024-03-23T11:44:15;100836.13;;;9.01;55.78
65329;BME280;51941;52.210;5.158;2024-03-23T11:46:41;100836.03;;;9.17;55.87
65329;BME280;51941;52.210;5.158;2024-03-23T11:49:20;100825.72;;;9.23;55.56
65329;BME280;51941;52.210;5.158;2024-03-23T11:51:47;100822.75;;;9.51;56.76
65329;BME280;51941;52.210;5.158;2024-03-23T11:54:14;100819.00;;;9.59;55.32
65329;BME280;51941;52.210;5.158;2024-03-23T11:56:40;100825.97;;;9.64;54.91
65329;BME280;51941;52.210;5.158;2024-03-23T11:59:09;100826.38;;;9.93;55.18
65329;BME280;51941;52.210;5.158;2024-03-23T12:01:37;100831.97;;;9.27;54.09
65329;BME280;51941;52.210;5.158;2024-03-23T12:04:04;100830.34;;;9.22;54.56
65329;BME280;51941;52.210;5.158;2024-03-23T12:06:29;100823.25;;;8.87;54.62
65329;BME280;51941;52.210;5.158;2024-03-23T12:09:05;100827.97;;;8.94;54.35
65329;BME280;51941;52.210;5.158;2024-03-23T12:11:31;100812.34;;;9.00;54.10
65329;BME280;51941;52.210;5.158;2024-03-23T12:13:59;100815.66;;;9.16;53.52
65329;BME280;51941;52.210;5.158;2024-03-23T12:16:26;100815.38;;;9.21;53.41
65329;BME280;51941;52.210;5.158;2024-03-23T12:19:04;100811.94;;;9.47;53.77
65329;BME280;51941;52.210;5.158;2024-03-23T12:21:30;100804.63;;;9.75;54.10
65329;BME280;51941;52.210;5.158;2024-03-23T12:23:57;100807.50;;;9.62;53.20
65329;BME280;51941;52.210;5.158;2024-03-23T12:26:24;100800.34;;;9.43;54.25
65329;BME280;51941;52.210;5.158;2024-03-23T12:28:50;100802.94;;;9.63;54.48
65329;BME280;51941;52.210;5.158;2024-03-23T12:31:16;100805.81;;;9.24;53.77
65329;BME280;51941;52.210;5.158;2024-03-23T12:33:44;100793.56;;;9.53;53.77
65329;BME280;51941;52.210;5.158;2024-03-23T12:36:10;100792.84;;;9.56;53.95
65329;BME280;51941;52.210;5.158;2024-03-23T12:38:37;100802.13;;;9.62;53.97
65329;BME280;51941;52.210;5.158;2024-03-23T12:41:03;100787.97;;;9.65;52.46
65329;BME280;51941;52.210;5.158;2024-03-23T12:43:30;100803.81;;;9.70;51.92
65329;BME280;51941;52.210;5.158;2024-03-23T12:45:56;100784.09;;;9.93;52.26
65329;BME280;51941;52.210;5.158;2024-03-23T12:48:23;100802.09;;;9.89;50.91
65329;BME280;51941;52.210;5.158;2024-03-23T12:50:54;100794.72;;;9.82;50.12
65329;BME280;51941;52.210;5.158;2024-03-23T12:53:21;100790.03;;;10.09;50.43
65329;BME280;51941;52.210;5.158;2024-03-23T12:55:46;100796.06;;;10.33;50.29
65329;BME280;51941;52.210;5.158;2024-03-23T12:58:13;100781.59;;;10.48;50.18
65329;BME280;51941;52.210;5.158;2024-03-23T13:00:39;100786.31;;;10.55;49.82
65329;BME280;51941;52.210;5.158;2024-03-23T13:03:06;100790.13;;;10.17;49.53
65329;BME280;51941;52.210;5.158;2024-03-23T13:05:32;100786.00;;;9.93;48.85
65329;BME280;51941;52.210;5.158;2024-03-23T13:08:00;100786.56;;;10.09;49.69
65329;BME280;51941;52.210;5.158;2024-03-23T13:10:26;100788.56;;;9.82;48.48
65329;BME280;51941;52.210;5.158;2024-03-23T13:12:53;100791.13;;;9.71;49.03
65329;BME280;51941;52.210;5.158;2024-03-23T13:15:19;100792.84;;;9.56;49.57
65329;BME280;51941;52.210;5.158;2024-03-23T13:17:46;100781.09;;;9.68;50.51
65329;BME280;51941;52.210;5.158;2024-03-23T13:20:11;100784.44;;;9.88;51.73
65329;BME280;51941;52.210;5.158;2024-03-23T13:22:40;100786.22;;;10.10;51.99
65329;BME280;51941;52.210;5.158;2024-03-23T13:25:08;100772.25;;;10.35;52.28
65329;BME280;51941;52.210;5.158;2024-03-23T13:27:35;100781.84;;;10.33;53.14
65329;BME280;51941;52.210;5.158;2024-03-23T13:30:00;100790.09;;;10.13;53.97
65329;BME280;51941;52.210;5.158;2024-03-23T13:32:29;100789.09;;;9.95;55.62
65329;BME280;51941;52.210;5.158;2024-03-23T13:34:55;100782.50;;;9.58;57.36
65329;BME280;51941;52.210;5.158;2024-03-23T13:37:21;100793.41;;;9.42;57.82
65329;BME280;51941;52.210;5.158;2024-03-23T13:39:47;100776.09;;;9.40;58.12
65329;BME280;51941;52.210;5.158;2024-03-23T13:42:15;100779.19;;;9.15;56.73
65329;BME280;51941;52.210;5.158;2024-03-23T13:44:41;100773.28;;;8.83;56.68
65329;BME280;51941;52.210;5.158;2024-03-23T13:47:08;100770.44;;;8.72;56.45
65329;BME280;51941;52.210;5.158;2024-03-23T13:49:35;100771.44;;;8.87;56.40
65329;BME280;51941;52.210;5.158;2024-03-23T13:52:03;100769.94;;;8.89;55.58
65329;BME280;51941;52.210;5.158;2024-03-23T13:54:29;100764.88;;;9.07;55.04